N3TW KAPF-KMIA
Flight info
| Callsign | N3TW |
|---|---|
| Flight time | 0h 28m |
| Altitude | 13000 |
| Route | AABER FROGZ FROGZ5 |
| Aircraft | P180/L-SBDFGM3RWXY/LB1 |
Departure
| Time | 2026-04-21 02:48 |
|---|---|
| Airport | Naples Municipal Airport (KAPF) |
Arrival
| Time | 2026-04-21 03:17 |
|---|---|
| Airport | Miami International Airport (KMIA) |
| Time | Latitude | Longitude | Altitude | Speed | Heading |
|---|---|---|---|---|---|
| 2026-04-21 02:33 | 26.15390 | -81.77053 | 12 ft | 0 kts | 135° |
| 2026-04-21 02:40 | 26.15400 | -81.77064 | 11 ft | 2 kts | 135° |
| 2026-04-21 02:40 | 26.15411 | -81.77076 | 11 ft | 2 kts | 135° |
| 2026-04-21 02:40 | 26.15422 | -81.77089 | 11 ft | 2 kts | 135° |
| 2026-04-21 02:40 | 26.15418 | -81.77090 | 11 ft | 1 kts | 198° |
| 2026-04-21 02:41 | 26.15420 | -81.77100 | 11 ft | 2 kts | 309° |
| 2026-04-21 02:41 | 26.15436 | -81.77117 | 12 ft | 5 kts | 317° |
| 2026-04-21 02:41 | 26.15464 | -81.77148 | 12 ft | 2 kts | 291° |
| 2026-04-21 02:41 | 26.15464 | -81.77149 | 13 ft | 0 kts | 291° |
| 2026-04-21 02:42 | 26.15465 | -81.77149 | 13 ft | 0 kts | 291° |
| 2026-04-21 02:42 | 26.15466 | -81.77153 | 13 ft | 1 kts | 291° |
| 2026-04-21 02:42 | 26.15470 | -81.77164 | 13 ft | 2 kts | 291° |
| 2026-04-21 02:42 | 26.15472 | -81.77171 | 13 ft | 0 kts | 283° |
| 2026-04-21 02:44 | 26.15471 | -81.77173 | 13 ft | 1 kts | 264° |
| 2026-04-21 02:44 | 26.15455 | -81.77183 | 13 ft | 6 kts | 210° |
| 2026-04-21 02:44 | 26.15405 | -81.77228 | 13 ft | 13 kts | 219° |
| 2026-04-21 02:44 | 26.15339 | -81.77305 | 10 ft | 9 kts | 227° |
| 2026-04-21 02:45 | 26.15297 | -81.77354 | 9 ft | 1 kts | 226° |
| 2026-04-21 02:45 | 26.15272 | -81.77380 | 9 ft | 9 kts | 221° |
| 2026-04-21 02:45 | 26.15207 | -81.77445 | 9 ft | 16 kts | 228° |
| 2026-04-21 02:45 | 26.15111 | -81.77553 | 8 ft | 24 kts | 224° |
| 2026-04-21 02:46 | 26.14972 | -81.77699 | 10 ft | 30 kts | 223° |
| 2026-04-21 02:46 | 26.14805 | -81.77876 | 11 ft | 36 kts | 224° |
| 2026-04-21 02:46 | 26.14622 | -81.78078 | 10 ft | 33 kts | 229° |
| 2026-04-21 02:46 | 26.14599 | -81.78160 | 11 ft | 0 kts | 270° |
| 2026-04-21 02:47 | 26.14599 | -81.78162 | 11 ft | 2 kts | 270° |
| 2026-04-21 02:47 | 26.14601 | -81.78207 | 11 ft | 9 kts | 282° |
| 2026-04-21 02:47 | 26.14657 | -81.78208 | 12 ft | 12 kts | 43° |
| 2026-04-21 02:47 | 26.14667 | -81.78197 | 12 ft | 2 kts | 46° |
| 2026-04-21 02:48 | 26.14670 | -81.78194 | 12 ft | 0 kts | 46° |
| 2026-04-21 02:48 | 26.14740 | -81.78117 | 13 ft | 47 kts | 44° |
| 2026-04-21 02:48 | 26.15134 | -81.77687 | 14 ft | 116 kts | 46° |
| 2026-04-21 02:48 | 26.15740 | -81.77095 | 1208 ft | 104 kts | 43° |
| 2026-04-21 02:49 | 26.16257 | -81.76629 | 2811 ft | 100 kts | 41° |
| 2026-04-21 02:49 | 26.16939 | -81.76098 | 3894 ft | 138 kts | 37° |
| 2026-04-21 02:49 | 26.17681 | -81.75359 | 5295 ft | 152 kts | 59° |
| 2026-04-21 02:49 | 26.17738 | -81.74077 | 6276 ft | 199 kts | 103° |
| 2026-04-21 02:50 | 26.17121 | -81.72520 | 6757 ft | 225 kts | 114° |
| 2026-04-21 02:50 | 26.16429 | -81.70952 | 7659 ft | 228 kts | 112° |
| 2026-04-21 02:50 | 26.15761 | -81.69329 | 8462 ft | 234 kts | 111° |
| 2026-04-21 02:50 | 26.15075 | -81.67655 | 9268 ft | 240 kts | 111° |
| 2026-04-21 02:51 | 26.14370 | -81.65932 | 10051 ft | 246 kts | 111° |
| 2026-04-21 02:51 | 26.13669 | -81.64203 | 10755 ft | 251 kts | 111° |
| 2026-04-21 02:51 | 26.12947 | -81.62410 | 11469 ft | 255 kts | 112° |
| 2026-04-21 02:51 | 26.12219 | -81.60586 | 12173 ft | 259 kts | 112° |
| 2026-04-21 02:52 | 26.11488 | -81.58731 | 12850 ft | 264 kts | 111° |
| 2026-04-21 02:52 | 26.10739 | -81.56795 | 13002 ft | 288 kts | 111° |
| 2026-04-21 02:52 | 26.09921 | -81.54655 | 13009 ft | 309 kts | 111° |
| 2026-04-21 02:52 | 26.09062 | -81.52398 | 13016 ft | 323 kts | 111° |
| 2026-04-21 02:53 | 26.08424 | -81.49997 | 13008 ft | 331 kts | 98° |
| 2026-04-21 02:53 | 26.08283 | -81.47437 | 13004 ft | 322 kts | 87° |
| 2026-04-21 02:53 | 26.08357 | -81.45015 | 13007 ft | 311 kts | 85° |
| 2026-04-21 02:53 | 26.08460 | -81.42637 | 13007 ft | 304 kts | 85° |
| 2026-04-21 02:54 | 26.08508 | -81.40293 | 13002 ft | 300 kts | 89° |
| 2026-04-21 02:54 | 26.08282 | -81.38018 | 12995 ft | 298 kts | 99° |
| 2026-04-21 02:54 | 26.07796 | -81.35784 | 12994 ft | 296 kts | 103° |
| 2026-04-21 02:54 | 26.07167 | -81.33606 | 12991 ft | 295 kts | 112° |
| 2026-04-21 02:55 | 26.05917 | -81.31819 | 12993 ft | 295 kts | 140° |
| 2026-04-21 02:55 | 26.04246 | -81.30549 | 12995 ft | 294 kts | 148° |
| 2026-04-21 02:55 | 26.02520 | -81.29310 | 12995 ft | 294 kts | 145° |
| 2026-04-21 02:55 | 26.00872 | -81.27958 | 12997 ft | 293 kts | 142° |
| 2026-04-21 02:56 | 25.99247 | -81.26589 | 12997 ft | 293 kts | 143° |
| 2026-04-21 02:56 | 25.95911 | -81.24012 | 12996 ft | 293 kts | 145° |
| 2026-04-21 02:56 | 25.94244 | -81.22693 | 12996 ft | 293 kts | 144° |
| 2026-04-21 02:57 | 25.92595 | -81.21357 | 12992 ft | 293 kts | 144° |
| 2026-04-21 02:57 | 25.91504 | -81.20487 | 12995 ft | 288 kts | 144° |
| 2026-04-21 02:57 | 25.89618 | -81.18497 | 12985 ft | 280 kts | 119° |
| 2026-04-21 02:57 | 25.89114 | -81.16450 | 12991 ft | 273 kts | 92° |
| 2026-04-21 02:58 | 25.89096 | -81.15061 | 12993 ft | 270 kts | 87° |
| 2026-04-21 02:58 | 25.89057 | -81.13009 | 12351 ft | 266 kts | 92° |
| 2026-04-21 02:58 | 25.88741 | -81.10974 | 11824 ft | 261 kts | 101° |
| 2026-04-21 02:58 | 25.88346 | -81.09103 | 11518 ft | 247 kts | 99° |
| 2026-04-21 02:59 | 25.88059 | -81.07228 | 10967 ft | 245 kts | 95° |
| 2026-04-21 02:59 | 25.87830 | -81.05360 | 10462 ft | 241 kts | 96° |
| 2026-04-21 02:59 | 25.87559 | -81.03528 | 9954 ft | 238 kts | 97° |
| 2026-04-21 02:59 | 25.87271 | -81.01749 | 9395 ft | 235 kts | 98° |
| 2026-04-21 03:00 | 25.87072 | -80.99963 | 8847 ft | 231 kts | 92° |
| 2026-04-21 03:00 | 25.86904 | -80.98194 | 8319 ft | 228 kts | 95° |
| 2026-04-21 03:00 | 25.86689 | -80.96478 | 8034 ft | 215 kts | 95° |
| 2026-04-21 03:00 | 25.86508 | -80.94910 | 7999 ft | 194 kts | 93° |
| 2026-04-21 03:01 | 25.86363 | -80.93510 | 7987 ft | 176 kts | 92° |
| 2026-04-21 03:01 | 25.86228 | -80.92211 | 7987 ft | 161 kts | 93° |
| 2026-04-21 03:01 | 25.86098 | -80.90976 | 7686 ft | 166 kts | 92° |
| 2026-04-21 03:01 | 25.85958 | -80.89631 | 7239 ft | 178 kts | 92° |
| 2026-04-21 03:02 | 25.85811 | -80.88293 | 7003 ft | 175 kts | 94° |
| 2026-04-21 03:02 | 25.85668 | -80.86947 | 6731 ft | 174 kts | 92° |
| 2026-04-21 03:02 | 25.85528 | -80.85614 | 6455 ft | 173 kts | 94° |
| 2026-04-21 03:02 | 25.85385 | -80.84305 | 6180 ft | 171 kts | 94° |
| 2026-04-21 03:03 | 25.85243 | -80.82999 | 5904 ft | 169 kts | 93° |
| 2026-04-21 03:03 | 25.85106 | -80.81723 | 5635 ft | 167 kts | 93° |
| 2026-04-21 03:03 | 25.84969 | -80.80445 | 5368 ft | 165 kts | 93° |
| 2026-04-21 03:03 | 25.84836 | -80.79185 | 5092 ft | 162 kts | 94° |
| 2026-04-21 03:04 | 25.84700 | -80.77954 | 4753 ft | 163 kts | 93° |
| 2026-04-21 03:04 | 25.84517 | -80.76675 | 4281 ft | 169 kts | 99° |
| 2026-04-21 03:04 | 25.84343 | -80.75419 | 3966 ft | 162 kts | 90° |
| 2026-04-21 03:04 | 25.84222 | -80.74178 | 3619 ft | 161 kts | 94° |
| 2026-04-21 03:05 | 25.83992 | -80.72971 | 3282 ft | 158 kts | 96° |
| 2026-04-21 03:05 | 25.83771 | -80.71796 | 3067 ft | 149 kts | 94° |
| 2026-04-21 03:05 | 25.83588 | -80.70735 | 3014 ft | 134 kts | 93° |
| 2026-04-21 03:05 | 25.83421 | -80.69762 | 2994 ft | 121 kts | 92° |
| 2026-04-21 03:06 | 25.83268 | -80.68884 | 2988 ft | 110 kts | 92° |
| 2026-04-21 03:06 | 25.83131 | -80.68087 | 2995 ft | 103 kts | 92° |
| 2026-04-21 03:06 | 25.83038 | -80.67534 | 2991 ft | 106 kts | 92° |
| 2026-04-21 03:06 | 25.82898 | -80.66717 | 2994 ft | 109 kts | 92° |
| 2026-04-21 03:07 | 25.82755 | -80.65893 | 2992 ft | 111 kts | 92° |
| 2026-04-21 03:07 | 25.82608 | -80.65045 | 2995 ft | 112 kts | 93° |
| 2026-04-21 03:07 | 25.82458 | -80.64193 | 3000 ft | 112 kts | 92° |
| 2026-04-21 03:07 | 25.82311 | -80.63346 | 3002 ft | 113 kts | 92° |
| 2026-04-21 03:08 | 25.82163 | -80.62489 | 3000 ft | 113 kts | 92° |
| 2026-04-21 03:08 | 25.82013 | -80.61632 | 3003 ft | 113 kts | 93° |
| 2026-04-21 03:08 | 25.81865 | -80.60779 | 3003 ft | 114 kts | 94° |
| 2026-04-21 03:08 | 25.81708 | -80.59869 | 3011 ft | 126 kts | 94° |
| 2026-04-21 03:09 | 25.81533 | -80.58865 | 3014 ft | 137 kts | 94° |
| 2026-04-21 03:09 | 25.81347 | -80.57792 | 3015 ft | 146 kts | 94° |
| 2026-04-21 03:09 | 25.81152 | -80.56671 | 3017 ft | 152 kts | 95° |
| 2026-04-21 03:09 | 25.80944 | -80.55494 | 3009 ft | 158 kts | 96° |
| 2026-04-21 03:10 | 25.80728 | -80.54283 | 3011 ft | 161 kts | 95° |
| 2026-04-21 03:10 | 25.80509 | -80.53055 | 3010 ft | 163 kts | 96° |
| 2026-04-21 03:10 | 25.80085 | -80.51874 | 3010 ft | 168 kts | 109° |
| 2026-04-21 03:10 | 25.79544 | -80.50717 | 3010 ft | 169 kts | 110° |
| 2026-04-21 03:11 | 25.79021 | -80.49554 | 3007 ft | 166 kts | 105° |
| 2026-04-21 03:11 | 25.79042 | -80.48339 | 2992 ft | 158 kts | 66° |
| 2026-04-21 03:11 | 25.79470 | -80.47216 | 2995 ft | 158 kts | 70° |
| 2026-04-21 03:11 | 25.79619 | -80.46003 | 2997 ft | 163 kts | 83° |
| 2026-04-21 03:12 | 25.79669 | -80.44761 | 2924 ft | 157 kts | 82° |
| 2026-04-21 03:12 | 25.79735 | -80.43544 | 2483 ft | 159 kts | 81° |
| 2026-04-21 03:12 | 25.79791 | -80.42340 | 2416 ft | 147 kts | 82° |
| 2026-04-21 03:12 | 25.79830 | -80.41259 | 2411 ft | 137 kts | 81° |
| 2026-04-21 03:13 | 25.79870 | -80.40226 | 2416 ft | 130 kts | 80° |
| 2026-04-21 03:13 | 25.79916 | -80.39249 | 2413 ft | 125 kts | 80° |
| 2026-04-21 03:13 | 25.79947 | -80.38339 | 2414 ft | 108 kts | 79° |
| 2026-04-21 03:13 | 25.79983 | -80.37575 | 2414 ft | 91 kts | 78° |
| 2026-04-21 03:14 | 25.80005 | -80.36890 | 2270 ft | 90 kts | 80° |
| 2026-04-21 03:14 | 25.80008 | -80.36202 | 2061 ft | 90 kts | 81° |
| 2026-04-21 03:14 | 25.80002 | -80.35486 | 1792 ft | 94 kts | 81° |
| 2026-04-21 03:14 | 25.80010 | -80.34766 | 1537 ft | 95 kts | 81° |
| 2026-04-21 03:15 | 25.80063 | -80.34018 | 1311 ft | 97 kts | 77° |
| 2026-04-21 03:15 | 25.80125 | -80.33294 | 1124 ft | 96 kts | 78° |
| 2026-04-21 03:15 | 25.80180 | -80.32549 | 912 ft | 98 kts | 81° |
| 2026-04-21 03:15 | 25.80182 | -80.31777 | 626 ft | 101 kts | 84° |
| 2026-04-21 03:16 | 25.80247 | -80.30990 | 420 ft | 102 kts | 79° |
| 2026-04-21 03:16 | 25.80288 | -80.30389 | 208 ft | 106 kts | 83° |
| 2026-04-21 03:16 | 25.80309 | -80.29579 | 34 ft | 97 kts | 83° |
| 2026-04-21 03:16 | 25.80340 | -80.28908 | 10 ft | 66 kts | 85° |
| 2026-04-21 03:17 | 25.80359 | -80.28518 | 9 ft | 29 kts | 87° |
| 2026-04-21 03:17 | 25.80393 | -80.28312 | 10 ft | 26 kts | 59° |
| 2026-04-21 03:17 | 25.80469 | -80.28234 | 10 ft | 12 kts | 66° |
| 2026-04-21 03:17 | 25.80484 | -80.28126 | 10 ft | 17 kts | 88° |
| 2026-04-21 03:18 | 25.80495 | -80.27999 | 9 ft | 16 kts | 66° |
| 2026-04-21 03:18 | 25.80504 | -80.27966 | 9 ft | 11 kts | 89° |
| 2026-04-21 03:18 | 25.80502 | -80.27848 | 10 ft | 18 kts | 89° |
| 2026-04-21 03:18 | 25.80573 | -80.27804 | 9 ft | 14 kts | 354° |
| 2026-04-21 03:19 | 25.80647 | -80.27812 | 9 ft | 0 kts | 357° |